createdAt,value
2024-04-25T00:01:49.987Z,100599.81
2024-04-25T00:04:17.728Z,100605.50
2024-04-25T00:06:45.236Z,100605.38
2024-04-25T00:09:12.691Z,100603.72
2024-04-25T00:11:40.371Z,100594.28
2024-04-25T00:14:08.252Z,100585.06
2024-04-25T00:16:35.852Z,100575.66
2024-04-25T00:19:03.406Z,100567.97
2024-04-25T00:21:30.986Z,100555.44
2024-04-25T00:23:58.459Z,100561.34
2024-04-25T00:26:26.626Z,100557.03
2024-04-25T00:28:54.341Z,100557.84
2024-04-25T00:31:21.968Z,100561.09
2024-04-25T00:33:49.430Z,100563.00
2024-04-25T00:36:16.951Z,100558.38
2024-04-25T00:38:44.416Z,100554.03
2024-04-25T00:41:12.048Z,100559.38
2024-04-25T00:43:39.403Z,100575.31
2024-04-25T00:46:07.010Z,100569.28
2024-04-25T00:48:34.634Z,100555.72
2024-04-25T00:51:05.342Z,100562.09
2024-04-25T00:53:33.151Z,100561.72
2024-04-25T00:56:03.122Z,100559.28
2024-04-25T00:58:32.598Z,100556.31
2024-04-25T01:01:02.269Z,100555.72
2024-04-25T01:03:33.149Z,100545.13
2024-04-25T01:06:04.204Z,100554.94
2024-04-25T01:08:33.447Z,100553.28
2024-04-25T01:11:01.480Z,100551.69
2024-04-25T01:13:29.512Z,100546.34
2024-04-25T01:15:57.277Z,100561.81
2024-04-25T01:18:24.767Z,100541.81
2024-04-25T01:20:52.279Z,100545.03
2024-04-25T01:23:21.422Z,100546.34
2024-04-25T01:25:50.222Z,100552.56
2024-04-25T01:28:18.735Z,100547.22
2024-04-25T01:30:47.665Z,100535.03
2024-04-25T01:33:17.183Z,100525.88
2024-04-25T01:35:47.125Z,100518.25
2024-04-25T01:38:14.714Z,100507.16
2024-04-25T01:40:42.124Z,100500.47
2024-04-25T01:43:10.202Z,100493.22
2024-04-25T01:45:37.619Z,100507.69
2024-04-25T01:48:05.592Z,100514.31
2024-04-25T01:50:33.191Z,100506.53
2024-04-25T01:53:00.538Z,100519.91
2024-04-25T01:55:28.124Z,100513.44
2024-04-25T01:57:55.675Z,100516.75
2024-04-25T02:00:23.148Z,100514.63
2024-04-25T02:02:50.560Z,100531.50
2024-04-25T02:05:18.155Z,100523.66
2024-04-25T02:07:45.508Z,100524.47
2024-04-25T02:10:13.782Z,100520.66
2024-04-25T02:12:41.334Z,100531.22
2024-04-25T02:15:08.879Z,100530.13
2024-04-25T02:17:41.197Z,100532.25
2024-04-25T02:20:28.994Z,100535.25
2024-04-25T02:23:16.571Z,100540.59
2024-04-25T02:25:44.132Z,100540.59
2024-04-25T02:28:12.510Z,100540.59
2024-04-25T02:30:40.204Z,100534.16
2024-04-25T02:33:07.764Z,100541.19
2024-04-25T02:35:35.454Z,100541.13
2024-04-25T02:38:02.833Z,100539.94
2024-04-25T02:40:30.364Z,100542.06
2024-04-25T02:42:57.678Z,100528.41
2024-04-25T02:45:25.172Z,100521.84
2024-04-25T02:47:52.567Z,100528.91
2024-04-25T02:50:20.155Z,100527.59
2024-04-25T02:52:47.545Z,100524.16
2024-04-25T02:55:15.108Z,100522.72
2024-04-25T02:57:42.648Z,100521.59
2024-04-25T03:00:11.065Z,100519.47
2024-04-25T03:02:38.771Z,100526.88
2024-04-25T03:05:06.382Z,100523.44
2024-04-25T03:07:35.506Z,100514.56
2024-04-25T03:10:03.060Z,100522.81
2024-04-25T03:12:30.872Z,100527.19
2024-04-25T03:14:58.249Z,100528.56
2024-04-25T03:17:26.505Z,100521.84
2024-04-25T03:19:53.972Z,100525.34
2024-04-25T03:22:21.458Z,100523.75
2024-04-25T03:24:48.768Z,100523.50
2024-04-25T03:27:17.039Z,100525.72
2024-04-25T03:29:45.227Z,100522.47
2024-04-25T03:32:13.080Z,100530.34
2024-04-25T03:34:40.492Z,100519.19
2024-04-25T03:37:07.983Z,100531.94
2024-04-25T03:39:35.321Z,100524.34
2024-04-25T03:42:03.813Z,100531.59
2024-04-25T03:44:31.214Z,100536.44
2024-04-25T03:47:00.578Z,100525.06
2024-04-25T03:49:28.018Z,100520.22
2024-04-25T03:51:55.752Z,100534.59
2024-04-25T03:54:23.438Z,100537.59
2024-04-25T03:56:50.953Z,100547.44
2024-04-25T03:59:18.359Z,100543.38
2024-04-25T04:01:45.855Z,100540.16
2024-04-25T04:04:13.283Z,100543.69
2024-04-25T04:06:40.694Z,100538.03
2024-04-25T04:09:08.033Z,100543.75
2024-04-25T04:11:35.603Z,100551.66
2024-04-25T04:14:02.988Z,100554.06
2024-04-25T04:16:30.548Z,100574.16
2024-04-25T04:18:57.917Z,100573.34
2024-04-25T04:21:25.906Z,100566.59
2024-04-25T04:23:53.374Z,100577.69
2024-04-25T04:26:20.767Z,100574.97
2024-04-25T04:28:48.162Z,100584.72
2024-04-25T04:31:15.613Z,100580.91
2024-04-25T04:33:43.447Z,100581.13
2024-04-25T04:36:10.906Z,100582.16
2024-04-25T04:38:38.531Z,100581.31
2024-04-25T04:41:06.153Z,100575.81
2024-04-25T04:43:33.627Z,100578.47
2024-04-25T04:46:03.733Z,100576.47
2024-04-25T04:48:34.752Z,100577.72
2024-04-25T04:51:03.744Z,100589.78
2024-04-25T04:53:31.200Z,100581.97
2024-04-25T04:55:58.656Z,100585.41
2024-04-25T04:58:26.658Z,100589.38
2024-04-25T05:00:54.233Z,100594.81
2024-04-25T05:03:21.902Z,100598.59
2024-04-25T05:05:49.490Z,100599.28
2024-04-25T05:08:16.932Z,100611.19
2024-04-25T05:10:44.456Z,100613.34
2024-04-25T05:13:13.748Z,100619.41
2024-04-25T05:15:41.634Z,100609.75
2024-04-25T05:18:09.395Z,100613.41
2024-04-25T05:20:36.871Z,100623.38
2024-04-25T05:23:04.418Z,100619.03
2024-04-25T05:25:32.161Z,100621.25
2024-04-25T05:27:59.641Z,100628.03
2024-04-25T05:30:27.412Z,100615.66
2024-04-25T05:32:55.013Z,100616.03
2024-04-25T05:35:22.664Z,100618.56
2024-04-25T05:37:50.131Z,100623.56
2024-04-25T05:40:17.735Z,100633.56
2024-04-25T05:42:46.293Z,100624.28
2024-04-25T05:45:13.838Z,100632.69
2024-04-25T05:47:41.406Z,100628.13
2024-04-25T05:50:09.842Z,100625.06
2024-04-25T05:52:38.181Z,100633.66
2024-04-25T05:55:06.318Z,100627.03
2024-04-25T05:57:33.702Z,100626.28
2024-04-25T06:00:01.375Z,100630.47
2024-04-25T06:02:33.120Z,100628.34
2024-04-25T06:05:00.716Z,100625.34
2024-04-25T06:07:28.215Z,100615.97
2024-04-25T06:09:55.764Z,100624.78
2024-04-25T06:12:23.606Z,100639.97
2024-04-25T06:14:51.104Z,100632.53
2024-04-25T06:17:18.597Z,100643.81
2024-04-25T06:19:47.486Z,100628.84
2024-04-25T06:22:15.149Z,100638.88
2024-04-25T06:24:42.681Z,100643.44
2024-04-25T06:27:10.210Z,100651.50
2024-04-25T06:29:37.873Z,100645.53
2024-04-25T06:32:05.655Z,100646.44
2024-04-25T06:34:34.668Z,100648.47
2024-04-25T06:37:06.494Z,100646.75
2024-04-25T06:39:34.459Z,100651.09
2024-04-25T06:42:02.679Z,100648.00
2024-04-25T06:44:37.239Z,100655.34
2024-04-25T06:47:08.470Z,100660.16
2024-04-25T06:49:37.611Z,100662.69
2024-04-25T06:52:05.541Z,100659.22
2024-04-25T06:54:33.648Z,100661.50
2024-04-25T06:57:01.006Z,100657.91
2024-04-25T06:59:29.343Z,100662.44
2024-04-25T07:01:56.815Z,100654.59
2024-04-25T07:04:24.188Z,100659.94
2024-04-25T07:06:51.690Z,100664.59
2024-04-25T07:09:19.041Z,100663.19
2024-04-25T07:11:46.602Z,100660.81
2024-04-25T07:14:14.103Z,100667.34
2024-04-25T07:16:41.756Z,100665.66
2024-04-25T07:19:10.191Z,100660.22
2024-04-25T07:21:37.919Z,100658.03
2024-04-25T07:24:05.490Z,100654.72
2024-04-25T07:26:33.718Z,100661.88
2024-04-25T07:29:01.273Z,100666.13
2024-04-25T07:31:28.796Z,100665.97
2024-04-25T07:33:56.355Z,100665.44
2024-04-25T07:36:23.988Z,100662.03
2024-04-25T07:38:51.854Z,100652.06
2024-04-25T07:41:20.309Z,100656.81
2024-04-25T07:43:47.759Z,100648.03
2024-04-25T07:46:15.613Z,100663.00
2024-04-25T07:48:46.847Z,100663.22
2024-04-25T07:51:14.326Z,100671.56
2024-04-25T07:53:41.952Z,100676.72
2024-04-25T07:56:09.481Z,100666.19
2024-04-25T07:58:37.177Z,100676.25
2024-04-25T08:01:05.919Z,100670.38
2024-04-25T08:03:33.541Z,100669.59
2024-04-25T08:06:01.037Z,100678.03
2024-04-25T08:08:28.847Z,100673.41
2024-04-25T08:10:56.447Z,100679.50
2024-04-25T08:13:26.042Z,100668.69
2024-04-25T08:15:53.664Z,100673.34
2024-04-25T08:18:21.105Z,100673.53
2024-04-25T08:20:49.629Z,100673.16
2024-04-25T08:23:17.012Z,100672.53
2024-04-25T08:25:44.650Z,100676.13
2024-04-25T08:28:12.612Z,100680.75
2024-04-25T08:30:40.318Z,100690.69
2024-04-25T08:33:10.119Z,100688.78
2024-04-25T08:35:38.155Z,100689.06
2024-04-25T08:38:06.960Z,100683.13
2024-04-25T08:40:35.339Z,100683.16
2024-04-25T08:43:06.001Z,100680.28
2024-04-25T08:45:36.330Z,100674.94
2024-04-25T08:48:07.591Z,100679.66
2024-04-25T08:50:37.348Z,100672.63
2024-04-25T08:53:07.118Z,100677.09
2024-04-25T08:55:36.070Z,100675.56
2024-04-25T08:58:05.806Z,100682.53
2024-04-25T09:00:33.822Z,100679.41
2024-04-25T09:03:08.838Z,100678.66
2024-04-25T09:05:36.978Z,100683.00
2024-04-25T09:08:04.809Z,100677.72
2024-04-25T09:10:40.986Z,100681.94
2024-04-25T09:13:08.722Z,100678.31
2024-04-25T09:15:36.785Z,100680.88
2024-04-25T09:18:04.565Z,100682.13
2024-04-25T09:20:32.857Z,100687.66
2024-04-25T09:23:04.528Z,100692.47
2024-04-25T09:25:34.605Z,100684.13
2024-04-25T09:28:04.147Z,100686.00
2024-04-25T09:30:34.259Z,100672.19
2024-04-25T09:33:05.562Z,100684.75
2024-04-25T09:35:41.102Z,100676.88
2024-04-25T09:38:08.718Z,100672.25
2024-04-25T09:40:36.048Z,100673.25
2024-04-25T09:43:03.631Z,100663.44
2024-04-25T09:45:34.100Z,100670.06
2024-04-25T09:48:06.178Z,100663.81
2024-04-25T09:50:40.390Z,100661.56
2024-04-25T09:53:14.035Z,100658.16
2024-04-25T09:55:46.986Z,100657.75
2024-04-25T09:58:39.503Z,100647.91
2024-04-25T10:01:07.755Z,100657.19
2024-04-25T10:03:36.181Z,100653.69
2024-04-25T10:06:03.772Z,100653.44
2024-04-25T10:08:32.279Z,100643.69
2024-04-25T10:11:03.071Z,100652.13
2024-04-25T10:13:32.271Z,100652.38
2024-04-25T10:15:59.774Z,100653.59
2024-04-25T10:18:28.495Z,100642.66
2024-04-25T10:21:03.506Z,100639.84
2024-04-25T10:23:37.332Z,100634.25
2024-04-25T10:26:05.138Z,100632.06
2024-04-25T10:28:33.876Z,100627.84
2024-04-25T10:31:01.980Z,100634.53
2024-04-25T10:33:30.719Z,100638.91
2024-04-25T10:36:08.099Z,100633.53
2024-04-25T10:38:35.821Z,100628.22
2024-04-25T10:41:03.157Z,100621.38
2024-04-25T10:43:30.981Z,100630.91
2024-04-25T10:45:58.349Z,100624.88
2024-04-25T10:48:26.888Z,100603.97
2024-04-25T10:50:54.468Z,100622.63
2024-04-25T10:53:23.813Z,100620.59
2024-04-25T10:55:53.069Z,100615.94
2024-04-25T10:58:22.284Z,100619.56
2024-04-25T11:00:49.814Z,100623.75
2024-04-25T11:03:18.664Z,100614.41
2024-04-25T11:05:47.550Z,100609.38
2024-04-25T11:08:15.870Z,100610.72
2024-04-25T11:10:43.469Z,100606.59
2024-04-25T11:13:13.137Z,100600.97
2024-04-25T11:15:44.214Z,100602.91
2024-04-25T11:18:16.730Z,100594.84
2024-04-25T11:20:51.331Z,100591.47
2024-04-25T11:23:22.210Z,100597.88
2024-04-25T11:25:52.153Z,100593.56
2024-04-25T11:28:20.591Z,100605.28
2024-04-25T11:30:48.160Z,100605.13
2024-04-25T11:33:27.716Z,100593.56
2024-04-25T11:35:56.330Z,100596.44
2024-04-25T11:38:24.951Z,100599.34
2024-04-25T11:40:52.620Z,100603.00
2024-04-25T11:43:20.842Z,100589.63
2024-04-25T11:45:48.533Z,100606.06
2024-04-25T11:48:20.082Z,100592.16
2024-04-25T11:50:48.468Z,100585.88
2024-04-25T11:53:16.112Z,100613.03
2024-04-25T11:55:44.070Z,100621.34
2024-04-25T11:58:12.106Z,100619.84
2024-04-25T12:00:39.942Z,100631.50
2024-04-25T12:03:07.445Z,100642.00
2024-04-25T12:05:35.636Z,100631.31
2024-04-25T12:08:05.799Z,100624.81
2024-04-25T12:10:33.904Z,100640.25
2024-04-25T12:13:02.793Z,100636.16
2024-04-25T12:15:30.344Z,100631.06
2024-04-25T12:17:57.795Z,100630.00
2024-04-25T12:20:26.374Z,100630.06
2024-04-25T12:22:55.722Z,100629.59
2024-04-25T12:25:23.251Z,100638.50
2024-04-25T12:27:51.248Z,100644.28
2024-04-25T12:30:18.826Z,100642.25
2024-04-25T12:32:46.441Z,100646.06
2024-04-25T12:35:14.249Z,100656.88
2024-04-25T12:37:41.758Z,100672.94
2024-04-25T12:40:09.573Z,100666.72
2024-04-25T12:42:37.066Z,100668.63
2024-04-25T12:45:04.748Z,100660.91
2024-04-25T12:47:32.492Z,100652.50
2024-04-25T12:49:59.982Z,100666.13
2024-04-25T12:52:27.554Z,100662.91
2024-04-25T12:54:55.123Z,100665.31
2024-04-25T12:57:25.302Z,100668.28
2024-04-25T12:59:53.357Z,100673.34
2024-04-25T13:02:24.099Z,100661.88
2024-04-25T13:04:51.751Z,100680.31
2024-04-25T13:07:19.165Z,100680.56
2024-04-25T13:09:46.709Z,100697.59
2024-04-25T13:12:14.075Z,100678.63
2024-04-25T13:14:41.630Z,100681.22
2024-04-25T13:17:09.789Z,100690.03
2024-04-25T13:19:39.196Z,100690.13
2024-04-25T13:22:08.245Z,100689.34
2024-04-25T13:24:35.719Z,100688.44
2024-04-25T13:27:04.326Z,100684.66
2024-04-25T13:29:31.715Z,100690.50
2024-04-25T13:31:59.161Z,100691.88
2024-04-25T13:34:26.714Z,100688.66
2024-04-25T13:36:57.055Z,100692.44
2024-04-25T13:39:24.644Z,100679.28
2024-04-25T13:41:52.158Z,100677.47
2024-04-25T13:44:19.752Z,100671.16
2024-04-25T13:46:47.206Z,100686.03
2024-04-25T13:49:14.811Z,100687.75
2024-04-25T13:51:42.345Z,100677.81
2024-04-25T13:54:09.854Z,100685.28
2024-04-25T13:56:37.323Z,100680.22
2024-04-25T13:59:04.815Z,100672.88
2024-04-25T14:01:32.871Z,100683.41
2024-04-25T14:04:00.611Z,100684.44
2024-04-25T14:06:28.011Z,100682.72
2024-04-25T14:08:55.677Z,100671.34
2024-04-25T14:11:23.205Z,100681.09
2024-04-25T14:13:52.069Z,100689.09
2024-04-25T14:16:19.495Z,100692.19
2024-04-25T14:18:47.039Z,100702.88
2024-04-25T14:21:18.799Z,100698.38
2024-04-25T14:23:46.686Z,100692.63
2024-04-25T14:26:32.554Z,100699.03
2024-04-25T14:29:00.156Z,100697.53
2024-04-25T14:31:27.501Z,100704.28
2024-04-25T14:33:55.197Z,100701.88
2024-04-25T14:36:22.806Z,100701.63
2024-04-25T14:38:50.699Z,100709.63
2024-04-25T14:41:19.634Z,100704.22
2024-04-25T14:43:52.032Z,100697.25
2024-04-25T14:46:26.748Z,100701.25
2024-04-25T14:48:54.261Z,100704.50
2024-04-25T14:51:21.886Z,100692.16
2024-04-25T14:53:49.582Z,100701.53
2024-04-25T14:56:17.273Z,100698.53
2024-04-25T14:58:44.701Z,100702.63
2024-04-25T15:01:18.713Z,100691.91
2024-04-25T15:03:47.001Z,100699.34
2024-04-25T15:06:14.403Z,100702.81
2024-04-25T15:08:42.117Z,100704.16
2024-04-25T15:11:13.785Z,100707.88
2024-04-25T15:13:41.789Z,100707.56
2024-04-25T15:16:09.171Z,100707.88
2024-04-25T15:18:40.473Z,100708.25
2024-04-25T15:21:09.998Z,100722.25
2024-04-25T15:23:38.371Z,100711.41
2024-04-25T15:26:05.928Z,100711.66
2024-04-25T15:28:34.819Z,100715.66
2024-04-25T15:31:02.551Z,100711.63
2024-04-25T15:33:30.220Z,100709.41
2024-04-25T15:35:57.918Z,100720.78
2024-04-25T15:38:25.397Z,100700.44
2024-04-25T15:43:57.394Z,100698.56
2024-04-25T15:49:28.434Z,100715.28
2024-04-25T15:55:21.248Z,100701.22
2024-04-25T16:00:54.089Z,100708.88
2024-04-25T16:06:25.883Z,100713.03
2024-04-25T16:26:09.012Z,100715.06
2024-04-25T16:37:30.085Z,100730.41
2024-04-25T16:42:58.309Z,100718.06
2024-04-25T16:45:30.873Z,100724.56
2024-04-25T16:57:21.208Z,100737.97
2024-04-25T17:02:53.328Z,100734.09
2024-04-25T17:05:35.626Z,100741.16
2024-04-25T17:10:50.841Z,100742.13
2024-04-25T17:13:43.058Z,100746.13
2024-04-25T17:16:12.262Z,100751.94
2024-04-25T17:18:39.715Z,100753.56
2024-04-25T17:21:10.768Z,100763.44
2024-04-25T17:23:39.608Z,100758.41
2024-04-25T17:26:10.039Z,100757.75
2024-04-25T17:28:37.628Z,100758.41
2024-04-25T17:31:05.309Z,100756.28
2024-04-25T17:33:33.122Z,100768.72
2024-04-25T17:36:01.070Z,100770.69
2024-04-25T17:38:28.854Z,100767.16
2024-04-25T17:40:56.370Z,100778.63
2024-04-25T17:43:24.381Z,100783.91
2024-04-25T17:45:51.912Z,100782.44
2024-04-25T17:48:19.795Z,100776.97
2024-04-25T17:50:47.497Z,100791.81
2024-04-25T17:53:15.147Z,100789.06
2024-04-25T17:55:42.728Z,100793.41
2024-04-25T17:58:10.428Z,100791.81
2024-04-25T18:00:41.622Z,100792.63
2024-04-25T18:03:10.316Z,100807.13
2024-04-25T18:05:40.449Z,100807.63
2024-04-25T18:08:12.709Z,100808.75
2024-04-25T18:10:43.362Z,100806.16
2024-04-25T18:13:11.053Z,100807.31
2024-04-25T18:15:38.631Z,100810.69
2024-04-25T18:18:06.505Z,100816.34
2024-04-25T18:20:34.393Z,100807.00
2024-04-25T18:23:01.914Z,100810.53
2024-04-25T18:25:30.797Z,100811.03
2024-04-25T18:27:58.341Z,100819.75
2024-04-25T18:30:25.883Z,100820.69
2024-04-25T18:32:53.521Z,100821.97
2024-04-25T18:35:21.088Z,100834.84
2024-04-25T18:37:48.482Z,100842.59
2024-04-25T18:40:17.218Z,100855.00
2024-04-25T18:42:44.728Z,100864.50
2024-04-25T18:45:12.232Z,100861.75
2024-04-25T18:47:39.831Z,100865.63
2024-04-25T18:50:07.844Z,100875.75
2024-04-25T18:52:35.359Z,100880.44
2024-04-25T18:55:02.866Z,100894.13
2024-04-25T18:57:30.258Z,100893.03
2024-04-25T18:59:57.838Z,100887.53
2024-04-25T19:02:25.360Z,100890.59
2024-04-25T19:04:53.046Z,100895.75
2024-04-25T19:07:20.503Z,100893.31
2024-04-25T19:09:53.179Z,100892.34
2024-04-25T19:12:21.187Z,100903.63
2024-04-25T19:14:51.316Z,100908.63
2024-04-25T19:17:19.015Z,100908.13
2024-04-25T19:19:50.036Z,100912.00
2024-04-25T19:22:21.583Z,100928.75
2024-04-25T19:24:49.277Z,100918.44
2024-04-25T19:27:16.877Z,100920.22
2024-04-25T19:29:44.365Z,100925.81
2024-04-25T19:32:11.971Z,100923.41
2024-04-25T19:34:39.486Z,100927.41
2024-04-25T19:37:06.837Z,100917.47
2024-04-25T19:39:34.416Z,100923.91
2024-04-25T19:42:04.862Z,100923.75
2024-04-25T19:44:32.576Z,100928.91
2024-04-25T19:47:00.346Z,100917.47
2024-04-25T19:49:28.069Z,100926.47
2024-04-25T19:51:55.765Z,100927.63
2024-04-25T19:54:23.536Z,100936.63
2024-04-25T19:56:51.065Z,100928.25
2024-04-25T19:59:19.168Z,100932.75
2024-04-25T20:01:50.554Z,100942.09
2024-04-25T20:04:22.964Z,100941.59
2024-04-25T20:06:51.241Z,100939.66
2024-04-25T20:09:21.604Z,100947.06
2024-04-25T20:11:49.401Z,100945.13
2024-04-25T20:14:16.932Z,100956.09
2024-04-25T20:16:46.392Z,100959.63
2024-04-25T20:19:32.404Z,100958.03
2024-04-25T20:21:59.876Z,100963.81
2024-04-25T20:24:27.728Z,100960.25
2024-04-25T20:26:56.754Z,100958.03
2024-04-25T20:29:29.659Z,100965.25
2024-04-25T20:31:57.959Z,100959.78
2024-04-25T20:34:25.761Z,100965.56
2024-04-25T20:36:53.602Z,100956.56
2024-04-25T20:39:21.678Z,100956.06
2024-04-25T20:41:49.566Z,100967.00
2024-04-25T20:44:17.855Z,100972.47
2024-04-25T20:46:45.449Z,100967.63
2024-04-25T20:49:12.933Z,100971.03
2024-04-25T20:51:42.634Z,100967.78
2024-04-25T20:54:12.053Z,100964.09
2024-04-25T20:56:42.720Z,100967.13
2024-04-25T20:59:10.313Z,100955.72
2024-04-25T21:01:40.615Z,100960.50
2024-04-25T21:04:08.345Z,100961.31
2024-04-25T21:06:42.508Z,100958.41
2024-04-25T21:09:11.811Z,100960.16
2024-04-25T21:11:39.255Z,100959.78
2024-04-25T21:14:06.982Z,100956.69
2024-04-25T21:16:40.882Z,100956.34
2024-04-25T21:19:08.669Z,100954.69
2024-04-25T21:21:36.098Z,100954.50
2024-04-25T21:24:04.291Z,100953.53
2024-04-25T21:26:31.704Z,100954.47
2024-04-25T21:28:59.595Z,100947.81
2024-04-25T21:31:27.144Z,100947.53
2024-04-25T21:33:55.384Z,100950.38
2024-04-25T21:36:23.110Z,100944.13
2024-04-25T21:38:51.007Z,100951.00
2024-04-25T21:41:18.713Z,100948.88
2024-04-25T21:43:46.578Z,100952.25
2024-04-25T21:46:14.095Z,100945.78
2024-04-25T21:48:45.450Z,100948.25
2024-04-25T21:51:15.270Z,100945.50
2024-04-25T21:53:42.804Z,100940.34
2024-04-25T21:56:10.708Z,100952.50
2024-04-25T21:58:38.240Z,100942.19
2024-04-25T22:01:06.649Z,100955.84
2024-04-25T22:03:34.997Z,100943.13
2024-04-25T22:06:02.761Z,100956.00
2024-04-25T22:08:30.360Z,100948.09
2024-04-25T22:10:58.038Z,100958.53
2024-04-25T22:13:25.483Z,100963.00
2024-04-25T22:15:53.197Z,100963.13
2024-04-25T22:18:21.189Z,100968.09
2024-04-25T22:20:48.878Z,100967.28
2024-04-25T22:23:16.314Z,100965.34
2024-04-25T22:25:43.886Z,100961.53
2024-04-25T22:28:11.980Z,100965.84
2024-04-25T22:30:39.508Z,100968.78
2024-04-25T22:33:07.242Z,100982.09
2024-04-25T22:35:34.715Z,100981.63
2024-04-25T22:38:02.416Z,100981.13
2024-04-25T22:40:30.311Z,100985.28
2024-04-25T22:42:57.903Z,100980.66
2024-04-25T22:45:31.918Z,100992.03
2024-04-25T22:48:03.184Z,100982.44
2024-04-25T22:50:30.812Z,100974.84
2024-04-25T22:52:58.702Z,100984.47
2024-04-25T22:55:26.097Z,100980.75
2024-04-25T22:57:53.557Z,100983.28
2024-04-25T23:00:21.013Z,100977.13
2024-04-25T23:02:48.424Z,100975.53
2024-04-25T23:05:16.253Z,100978.25
2024-04-25T23:07:46.843Z,100976.38
2024-04-25T23:10:14.363Z,100977.38
2024-04-25T23:12:41.938Z,100976.06
2024-04-25T23:15:09.808Z,100974.94
2024-04-25T23:17:37.458Z,100964.00
2024-04-25T23:20:05.155Z,100966.25
2024-04-25T23:22:32.677Z,100966.25
2024-04-25T23:25:00.046Z,100958.56
2024-04-25T23:27:27.597Z,100962.72
2024-04-25T23:29:55.146Z,100962.22
2024-04-25T23:32:23.354Z,100954.84
2024-04-25T23:34:50.753Z,100957.09
2024-04-25T23:37:18.112Z,100957.69
2024-04-25T23:39:45.594Z,100948.00
2024-04-25T23:42:13.115Z,100958.41
2024-04-25T23:44:40.746Z,100947.50
2024-04-25T23:47:08.427Z,100951.81
2024-04-25T23:49:35.910Z,100949.09
2024-04-25T23:52:03.614Z,100952.66
2024-04-25T23:54:30.956Z,100954.06
2024-04-25T23:56:58.465Z,100943.16
2024-04-25T23:59:26.027Z,100948.09
